Flight Track Log - Related Links

Times and Time Zones

All times are in EDT time to prevent confusion due to time zone crossing. See the N777NC flight status page for this flight to view local times or setup timezone preferences in your user account.

Time Position Orientation Groundspeed Altitude Reporting Facility
EDT Latitude Longitude Course Direction KTS MPH feet Rate Location/Type
Sat 06:50:26 PM 33.6167 -84.3333 163° South 242 278 3,300  Level Atlanta TRACON
Sat 06:51:20 PM 33.6000 -84.2667 107° East 273 314 4,600 2,316 Climbing Atlanta TRACON
Sat 06:52:00 PM 33.3586 -84.3066 160° South  Level FlightAware Approximate
Sat 06:52:20 PM 33.5500 -84.1833 126° Southeast 273 314 7,700  Level Atlanta TRACON
Sat 06:53:00 PM 33.2595 -84.2667 180° South  Level FlightAware Approximate
Sat 06:54:00 PM 33.1647 -84.2356 163° South  Level FlightAware Approximate
Sat 06:54:06 PM 33.4708 -84.0536 126° Southeast 290 334 10,000  Level Atlanta Center
Sat 06:55:00 PM 33.0703 -84.2013 163° South  Level FlightAware Approximate
Sat 06:55:06 PM 33.4164 -83.9817 132° Southeast 306 352 10,000  Level Atlanta Center
Sat 06:56:06 PM 33.3411 -83.9094 141° Southeast 337 388 10,100 1,350 Climbing Atlanta Center
Sat 06:57:06 PM 33.2806 -83.8153 128° Southeast 350 403 12,700 1,450 Climbing Atlanta Center
Sat 06:58:06 PM 33.2156 -83.7236 130° Southeast 361 415 13,000 150 Climbing Atlanta Center
Sat 06:59:06 PM 33.1133 -83.7089 173° South 342 394 13,000 550 Level Atlanta Center
Sat 07:00:06 PM 33.0400 -83.6422 143° Southeast 350 403 14,100 1,050 Climbing Atlanta Center
Sat 07:01:06 PM 33.0000 -83.5161 111° Southeast 346 398 15,100 450 Climbing Atlanta Center
Sat 07:02:06 PM 32.9617 -83.3853 109° East 378 435 15,000 1,650 Descending Atlanta Center
Sat 07:03:06 PM 32.9214 -83.2519 110° East 393 452 18,400 2,550 Climbing Atlanta Center
Sat 07:04:06 PM 32.8892 -83.1333 108° East 381 438 20,100 1,500 Climbing Atlanta Center
Sat 07:05:06 PM 32.8528 -83.0200 111° Southeast 376 433 21,400 1,150 Climbing Atlanta Center
Sat 07:06:06 PM 32.8142 -82.8994 111° Southeast 376 433 22,400 -60 Climbing Atlanta Center
Sat 07:08:27 PM 32.7172 -82.5939 111° Southeast 413 475 21,200 -1,254 Descending Jacksonville Center
Sat 07:09:27 PM 32.6753 -82.4631 111° Southeast 420 483 18,200 -2,600 Descending Jacksonville Center
Sat 07:10:27 PM 32.6247 -82.3450 117° Southeast 415 478 16,000 -2,050 Descending Jacksonville Center
Sat 07:11:27 PM 32.5739 -82.2344 119° Southeast 393 452 14,100 -2,000 Descending Jacksonville Center
Sat 07:12:27 PM 32.5233 -82.1214 118° Southeast 380 437 12,000 -1,450 Descending Jacksonville Center
Sat 07:13:27 PM 32.4744 -82.0183 119° Southeast 366 421 11,200 -500 Descending Jacksonville Center
Sat 07:14:27 PM 32.4219 -81.9572 135° Southeast 319 367 11,000 -250 Descending Jacksonville Center
Sat 07:15:27 PM 32.3589 -81.8842 136° Southeast 296 341 10,700 -850 Descending Jacksonville Center
Sat 07:16:27 PM 32.3392 -81.7886 104° East 276 318 9,300 -1,550 Descending Jacksonville Center
Sat 07:17:27 PM 32.3133 -81.7053 110° East 276 318 7,600 -1,750 Descending Jacksonville Center
Sat 07:18:27 PM 32.2772 -81.6247 118° Southeast 276 318 5,800 -1,600 Descending Jacksonville Center
Sat 07:19:27 PM 32.2183 -81.5814 148° Southeast 255 293 4,400 -1,200 Descending Jacksonville Center
Sat 07:20:27 PM 32.1778 -81.5181 127° Southeast 242 278 3,400 -800 Descending Jacksonville Center
Sat 07:21:27 PM 32.1417 -81.4450 120° Southeast 256 295 2,800 -650 Descending Jacksonville Center
Sat 07:22:27 PM 32.1283 -81.3742 103° East 241 277 2,100 -700 Descending Jacksonville Center

Login

Don't have an account? Register now (free) for customized features, flight alerts, and more!